KPVB Airport (Platteville Muni) Information

FAA: PVB - ICAO: KPVB

KPVB Airport Location

State Wisconsin
County Grant
City Platteville
KPVB Airport is 3 miles southeast of Platteville, WI.
Latitude 42-41-21.7000N
Longitude 090-26-39.8000W
Elevation 1,024ft

KPVB Airport METARs

METAR KPVB 240755Z AUTO 16004KT 10SM CLR 10/09 A2996 RMK AO1 T00950090
Altimeter 29.96"
Temperature 9.5°C (49.1°F)
Wind 160° at 4KT
Clouds Skies are clear.
Visibility 10.0mi
Time observed: 2021-09-24T07:55:00Z

KPVB Airport Details

Status Operational
Activation October 1965
Ownership Public
Usage Public
Chart CHICAGO
ATC on-site No
Beacon schedule sunset-sunrise
Beacon color clear green

KPVB Airport Contacts

Owner CITY OF PLATTEVILLE
Owner address 75 N BONSON, PLATTEVILLE, WI 53818
Owner phone 608-348-9741
Manager LINCOLN J DAVIES
Manager address W1639 DE WITT RD, OOSTBURG, WI 53070
Manager phone (920) 918-3196

KPVB Airport (Platteville Muni) Radio Frequencies

KPVB (Airport) Radio Frequencies

UNICOM 122.7
Common traffic advisory frequency (CTAF) 122.7